Time;durP1;ratioP1;P1;durP2;ratioP2;P2;SDS_P1;SDS_P2;PMS_P1;PMS_P2;Temp;Humidity;BMP_temperature;BMP_pressure;BME280_temperature;BME280_humidity;BME280_pressure;Samples;Min_cycle;Max_cycle;Signal;HPM_P1;HPM_P2
2022/12/23 00:08:46;;;;;;;17.70;14.00;;;;;;;3.97;100.00;98363.38;424230;1282;142040;-67
2022/12/23 00:18:52;;;;;;;15.60;13.20;;;;;;;4.02;100.00;98369.48;435552;1274;142061;-67
2022/12/23 00:28:58;;;;;;;13.00;11.40;;;;;;;4.10;100.00;98368.00;436393;1281;143149;-67
2022/12/23 00:49:43;;;;;;;13.90;10.40;;;;;;;4.28;100.00;98381.90;436233;1281;142778;-68
2022/12/23 00:59:49;;;;;;;11.80;9.10;;;;;;;4.30;100.00;98382.48;436078;1281;143033;-68
2022/12/23 01:09:55;;;;;;;11.00;9.40;;;;;;;4.36;100.00;98391.34;431601;1279;184449;-67
2022/12/23 01:20:01;;;;;;;8.60;7.70;;;;;;;4.43;100.00;98388.52;420858;1275;141433;-68
2022/12/23 01:30:09;;;;;;;8.60;7.80;;;;;;;4.49;100.00;98389.38;419006;1274;141532;-68
2022/12/23 01:40:16;;;;;;;9.50;8.40;;;;;;;4.59;100.00;98400.55;423266;1281;141904;-68
2022/12/23 01:50:26;;;;;;;10.20;8.50;;;;;;;4.62;100.00;98402.49;423761;1281;141850;-68
2022/12/23 02:11:19;;;;;;;11.80;9.00;;;;;;;4.57;100.00;98404.84;425500;1278;144172;-68
2022/12/23 02:21:41;;;;;;;13.20;11.80;;;;;;;4.59;100.00;98418.58;422522;1281;141494;-68
2022/12/23 02:31:57;;;;;;;12.50;11.20;;;;;;;4.59;100.00;98430.36;425096;1282;142970;-69
2022/12/23 02:42:10;;;;;;;13.50;11.90;;;;;;;4.45;100.00;98434.81;424693;1274;143395;-68
2022/12/23 02:52:19;;;;;;;11.80;10.70;;;;;;;4.33;100.00;98430.10;419796;1281;141917;-67
2022/12/23 03:02:25;;;;;;;13.70;12.30;;;;;;;4.28;100.00;98414.10;423704;1281;144505;-67
2022/12/23 03:12:40;;;;;;;14.60;12.70;;;;;;;4.29;100.00;98417.88;420533;1280;142848;-67
2022/12/23 03:22:55;;;;;;;14.70;12.30;;;;;;;4.30;100.00;98419.22;423595;1275;141824;-66
2022/12/23 03:33:05;;;;;;;15.40;12.50;;;;;;;4.21;100.00;98426.29;427132;1279;141839;-66
2022/12/23 03:43:19;;;;;;;12.90;11.60;;;;;;;4.15;100.00;98425.21;419469;1282;209996;-67
2022/12/23 03:53:28;;;;;;;12.10;10.60;;;;;;;4.11;100.00;98425.11;428198;1280;142649;-68
2022/12/23 04:03:40;;;;;;;12.50;11.00;;;;;;;4.15;100.00;98433.41;419590;1281;141762;-67
2022/12/23 04:13:48;;;;;;;14.20;11.90;;;;;;;4.12;100.00;98422.64;422215;1279;143171;-67
2022/12/23 04:23:52;;;;;;;;;;;;;;;4.15;100.00;98425.23;423970;1281;143029;-68
2022/12/23 04:33:58;;;;;;;15.60;13.70;;;;;;;4.11;100.00;98432.08;422171;1281;128487;-68
2022/12/23 04:44:04;;;;;;;17.70;15.10;;;;;;;4.06;100.00;98428.17;423482;1275;153144;-68
2022/12/23 04:54:10;;;;;;;16.70;14.00;;;;;;;3.96;100.00;98432.73;419452;1281;141673;-67
2022/12/23 05:04:17;;;;;;;24.80;17.90;;;;;;;3.92;100.00;98426.50;419122;1281;199037;-67
2022/12/23 05:14:23;;;;;;;18.80;16.10;;;;;;;3.77;100.00;98424.55;419165;1281;142958;-69
2022/12/23 05:24:29;;;;;;;18.10;15.50;;;;;;;3.65;100.00;98437.65;421545;1283;141815;-68
2022/12/23 05:34:35;;;;;;;20.60;15.40;;;;;;;3.67;100.00;98436.04;421516;1281;141480;-68
2022/12/23 05:44:41;;;;;;;17.40;13.50;;;;;;;3.61;100.00;98430.27;421708;1281;142028;-68
2022/12/23 05:54:47;;;;;;;18.30;15.10;;;;;;;3.67;100.00;98430.83;422507;1281;185348;-68
2022/12/23 06:04:53;;;;;;;26.50;18.80;;;;;;;3.75;100.00;98441.13;422681;1281;140991;-68
2022/12/23 06:14:59;;;;;;;23.10;17.30;;;;;;;3.86;100.00;98442.09;423716;1281;141419;-68
2022/12/23 06:25:06;;;;;;;18.70;13.40;;;;;;;4.01;100.00;98451.80;423408;1280;142787;-68
2022/12/23 06:35:12;;;;;;;17.50;13.10;;;;;;;4.12;100.00;98450.54;425035;1281;141697;-68
2022/12/23 06:45:18;;;;;;;15.30;11.70;;;;;;;4.22;100.00;98454.15;435547;1282;142012;-68
2022/12/23 06:55:24;;;;;;;14.00;12.00;;;;;;;4.27;100.00;98453.48;436254;1282;142123;-67
2022/12/23 07:05:30;;;;;;;15.30;12.60;;;;;;;4.38;100.00;98446.50;431211;1282;141747;-68
2022/12/23 07:15:42;;;;;;;15.20;11.40;;;;;;;4.43;100.00;98440.11;427345;1274;142226;-69
2022/12/23 07:25:48;;;;;;;14.80;11.60;;;;;;;4.51;100.00;98440.86;436291;1282;142759;-69
2022/12/23 07:35:59;;;;;;;17.70;13.70;;;;;;;4.57;100.00;98432.59;436136;1280;142832;-69
2022/12/23 07:46:09;;;;;;;18.30;15.30;;;;;;;4.64;100.00;98430.60;435750;1280;211605;-68
2022/12/23 07:56:15;;;;;;;22.60;18.30;;;;;;;4.72;100.00;98424.91;436343;1281;143121;-68
2022/12/23 08:06:21;;;;;;;15.60;13.50;;;;;;;4.84;100.00;98426.67;435688;1274;141938;-69
2022/12/23 08:16:27;;;;;;;18.40;13.90;;;;;;;4.86;100.00;98427.76;436495;1280;141443;-69
2022/12/23 08:26:34;;;;;;;21.70;15.80;;;;;;;4.82;100.00;98411.92;436443;1288;140412;-68
2022/12/23 08:36:39;;;;;;;19.20;14.50;;;;;;;4.84;100.00;98401.04;435555;1275;142301;-70
2022/12/23 08:46:45;;;;;;;24.30;16.90;;;;;;;4.96;100.00;98395.79;436453;1282;143244;-68
2022/12/23 08:56:52;;;;;;;19.80;14.10;;;;;;;5.17;100.00;98386.04;436267;1280;143294;-70
2022/12/23 09:06:57;;;;;;;19.70;14.10;;;;;;;5.35;100.00;98372.82;435422;1281;142276;-70
2022/12/23 09:17:03;;;;;;;15.90;13.40;;;;;;;5.49;100.00;98358.04;436109;1277;154629;-72
2022/12/23 09:27:09;;;;;;;17.70;13.90;;;;;;;5.59;100.00;98341.65;435812;1278;142653;-72
2022/12/23 09:37:16;;;;;;;17.00;13.00;;;;;;;5.55;100.00;98335.46;436367;1274;141795;-64
2022/12/23 09:47:28;;;;;;;18.60;13.90;;;;;;;5.53;100.00;98330.06;436488;1281;143428;-64
2022/12/23 09:57:41;;;;;;;16.90;12.30;;;;;;;5.60;100.00;98320.26;435633;1281;142270;-63
2022/12/23 10:07:52;;;;;;;15.30;12.40;;;;;;;5.75;100.00;98310.58;426006;1279;142726;-63
2022/12/23 10:18:03;;;;;;;12.30;10.90;;;;;;;5.99;100.00;98296.37;435016;1281;142410;-64
2022/12/23 10:28:10;;;;;;;17.70;12.60;;;;;;;6.25;100.00;98300.59;429202;1268;208650;-62
2022/12/23 10:38:31;;;;;;;14.60;12.30;;;;;;;6.24;100.00;98296.02;435222;1282;141900;-64
2022/12/23 10:48:48;;;;;;;14.50;12.30;;;;;;;6.43;100.00;98283.11;425462;1281;141415;-62
2022/12/23 10:58:58;;;;;;;14.30;12.30;;;;;;;6.68;100.00;98281.39;436334;1280;142766;-63
2022/12/23 11:09:05;;;;;;;15.10;12.40;;;;;;;6.75;100.00;98276.19;423040;1275;143271;-63
2022/12/23 11:19:16;;;;;;;13.60;10.80;;;;;;;6.70;100.00;98267.48;436333;1276;142111;-63
2022/12/23 11:29:27;;;;;;;13.70;11.60;;;;;;;6.44;100.00;98258.81;436413;1282;141952;-63
2022/12/23 11:39:35;;;;;;;15.00;12.60;;;;;;;6.30;100.00;98260.27;429149;1274;142750;-63
2022/12/23 11:49:49;;;;;;;11.60;10.40;;;;;;;6.18;100.00;98256.73;436090;1283;141806;-63
2022/12/23 12:00:02;;;;;;;14.20;11.20;;;;;;;6.12;100.00;98256.97;436420;1278;142592;-64
2022/12/23 12:10:17;;;;;;;14.30;11.20;;;;;;;6.02;100.00;98256.75;424727;1274;152265;-64
2022/12/23 12:20:30;;;;;;;13.40;10.70;;;;;;;6.00;100.00;98266.96;436292;1274;142343;-63
2022/12/23 12:30:40;;;;;;;13.10;10.60;;;;;;;5.99;100.00;98254.34;435543;1282;142524;-63
2022/12/23 12:40:50;;;;;;;14.60;10.90;;;;;;;5.90;100.00;98265.70;432219;1284;142187;-62
2022/12/23 12:51:04;;;;;;;9.30;8.30;;;;;;;5.91;100.00;98258.31;431401;1281;142408;-63
2022/12/23 13:01:25;;;;;;;10.20;8.20;;;;;;;6.03;100.00;98254.80;435691;1275;205545;-63
2022/12/23 13:11:39;;;;;;;10.80;9.50;;;;;;;6.05;100.00;98250.48;434223;1275;256666;-63
2022/12/23 13:21:51;;;;;;;11.20;9.30;;;;;;;6.10;100.00;98254.86;435244;1287;142190;-63
2022/12/23 13:32:09;;;;;;;11.40;9.20;;;;;;;6.04;100.00;98262.90;436049;1282;142720;-63
2022/12/23 13:42:22;;;;;;;10.70;9.60;;;;;;;5.95;100.00;98268.16;435237;1282;141963;-64
2022/12/23 13:52:54;;;;;;;10.00;8.90;;;;;;;5.91;100.00;98279.20;427883;1277;141080;-63
2022/12/23 14:03:19;;;;;;;9.40;8.10;;;;;;;5.88;100.00;98284.36;436274;1284;142129;-63
2022/12/23 14:13:28;;;;;;;10.90;7.80;;;;;;;5.80;100.00;98291.86;436141;1281;198025;-63
2022/12/23 14:23:48;;;;;;;12.50;8.30;;;;;;;5.81;100.00;98294.39;436413;1289;142211;-62
2022/12/23 14:34:01;;;;;;;10.50;9.20;;;;;;;5.84;100.00;98300.98;435913;1283;142316;-62
2022/12/23 14:44:20;;;;;;;13.40;9.80;;;;;;;5.85;100.00;98300.59;436535;1283;141964;-62
2022/12/23 14:54:40;;;;;;;14.40;12.00;;;;;;;5.83;100.00;98308.48;434783;1274;141719;-63
2022/12/23 15:05:06;;;;;;;14.10;12.60;;;;;;;5.88;100.00;98302.95;436356;1275;145655;-64
2022/12/23 15:15:23;;;;;;;15.10;10.30;;;;;;;5.91;100.00;98319.51;435796;1283;141832;-64
2022/12/23 15:25:32;;;;;;;19.10;11.30;;;;;;;5.95;100.00;98328.44;436466;1283;142444;-64
2022/12/23 15:35:40;;;;;;;23.30;15.20;;;;;;;5.92;100.00;98332.13;436615;1281;142119;-63
2022/12/23 15:45:46;;;;;;;14.40;12.30;;;;;;;5.95;100.00;98318.35;435839;1283;142276;-64
2022/12/23 15:55:52;;;;;;;19.50;13.90;;;;;;;5.94;100.00;98317.71;436489;1283;142397;-64
2022/12/23 16:06:09;;;;;;;19.80;12.90;;;;;;;5.97;100.00;98320.64;435957;1281;141936;-64
2022/12/23 16:16:37;;;;;;;16.70;12.10;;;;;;;6.05;100.00;98327.50;436029;1281;213071;-63
2022/12/23 16:26:44;;;;;;;27.30;16.90;;;;;;;6.10;100.00;98319.30;436527;1281;142633;-63
2022/12/23 16:36:50;;;;;;;29.40;19.60;;;;;;;6.10;100.00;98326.10;435886;1287;141879;-63
2022/12/23 16:46:56;;;;;;;19.10;14.90;;;;;;;6.07;100.00;98325.09;436706;1282;142308;-63
2022/12/23 16:57:03;;;;;;;21.10;14.80;;;;;;;6.08;100.00;98332.98;435234;1277;142428;-63
2022/12/23 17:07:13;;;;;;;23.80;18.80;;;;;;;6.14;100.00;98328.63;421765;1274;140891;-63
2022/12/23 17:17:20;;;;;;;14.80;13.30;;;;;;;6.14;100.00;98323.37;436603;1281;142333;-64
2022/12/23 17:27:26;;;;;;;17.30;13.70;;;;;;;6.13;100.00;98330.27;431849;1281;141800;-64
2022/12/23 17:37:32;;;;;;;17.00;15.20;;;;;;;6.15;100.00;98344.02;436524;1289;143004;-63
2022/12/23 17:47:38;;;;;;;16.90;13.40;;;;;;;6.26;100.00;98351.07;434872;1282;142818;-63
2022/12/23 17:57:44;;;;;;;14.20;12.70;;;;;;;6.37;100.00;98353.16;435305;1281;142739;-64
2022/12/23 18:07:51;;;;;;;14.80;13.00;;;;;;;6.46;100.00;98362.48;420851;1285;142018;-64
2022/12/23 18:17:57;;;;;;;15.80;13.20;;;;;;;6.54;100.00;98375.72;436236;1287;141539;-63
2022/12/23 18:28:03;;;;;;;14.80;13.30;;;;;;;6.58;100.00;98387.42;435811;1284;143112;-63
2022/12/23 18:38:10;;;;;;;15.80;13.30;;;;;;;6.62;100.00;98400.23;436384;1280;142198;-63
2022/12/23 18:48:16;;;;;;;17.90;15.30;;;;;;;6.64;100.00;98406.88;435668;1281;142436;-63
2022/12/23 18:58:23;;;;;;;14.80;12.80;;;;;;;6.65;100.00;98412.35;436331;1283;142209;-62
2022/12/23 19:08:29;;;;;;;18.30;13.50;;;;;;;6.63;100.00;98390.93;436216;1291;141810;-63
2022/12/23 19:18:35;;;;;;;13.70;11.70;;;;;;;6.54;100.00;98383.14;435658;1278;142552;-63
2022/12/23 19:28:41;;;;;;;15.40;12.80;;;;;;;6.36;100.00;98396.15;436394;1288;141287;-64
2022/12/23 19:38:47;;;;;;;16.50;13.50;;;;;;;6.11;100.00;98421.25;436351;1288;141588;-63
2022/12/23 19:48:53;;;;;;;15.10;13.10;;;;;;;5.95;100.00;98430.07;435381;1277;142899;-64
2022/12/23 19:58:59;;;;;;;17.70;13.50;;;;;;;5.96;100.00;98417.30;436178;1287;142546;-62
2022/12/23 20:09:06;;;;;;;14.90;13.30;;;;;;;6.04;100.00;98418.88;419170;1282;143581;-64
2022/12/23 20:19:13;;;;;;;15.50;12.90;;;;;;;6.16;100.00;98412.42;436615;1282;142197;-63
2022/12/23 20:29:19;;;;;;;22.20;17.90;;;;;;;6.33;100.00;98410.09;436654;1280;142976;-64
2022/12/23 20:39:25;;;;;;;21.50;16.00;;;;;;;6.36;100.00;98416.66;430396;1282;142274;-64
2022/12/23 20:49:31;;;;;;;18.50;15.90;;;;;;;6.25;100.00;98406.98;425964;1281;140994;-64
2022/12/23 20:59:37;;;;;;;17.30;15.20;;;;;;;6.04;100.00;98399.23;421262;1281;142094;-65
2022/12/23 21:09:43;;;;;;;18.70;15.80;;;;;;;5.90;100.00;98395.25;430447;1281;141804;-62
2022/12/23 21:19:49;;;;;;;16.30;14.60;;;;;;;5.89;100.00;98419.81;433220;1281;142247;-65
2022/12/23 21:29:55;;;;;;;22.70;18.70;;;;;;;5.88;100.00;98425.44;436357;1282;141906;-64
2022/12/23 21:40:01;;;;;;;24.00;17.70;;;;;;;5.96;100.00;98421.63;435676;1281;142547;-62
2022/12/23 21:50:10;;;;;;;21.80;17.50;;;;;;;5.99;100.00;98417.29;436440;1278;141179;-63
2022/12/23 22:00:17;;;;;;;49.90;33.70;;;;;;;5.86;100.00;98406.13;433742;1286;141573;-64
2022/12/23 22:10:23;;;;;;;35.80;28.40;;;;;;;5.71;100.00;98412.05;436417;1287;141661;-63
2022/12/23 22:20:29;;;;;;;39.80;28.90;;;;;;;5.75;100.00;98415.69;436414;1287;142445;-63
2022/12/23 22:30:34;;;;;;;35.10;24.40;;;;;;;5.82;100.00;98389.49;435650;1278;142164;-64
2022/12/23 22:40:40;;;;;;;36.60;26.20;;;;;;;5.78;100.00;98384.89;430519;1281;141673;-63
2022/12/23 22:50:46;;;;;;;41.20;32.90;;;;;;;5.64;100.00;98399.48;436418;1280;142272;-63
2022/12/23 23:00:53;;;;;;;41.50;31.20;;;;;;;5.67;100.00;98385.22;435439;1281;144986;-64
2022/12/23 23:11:01;;;;;;;34.60;26.60;;;;;;;5.81;100.00;98374.31;420096;1281;141078;-64
2022/12/23 23:21:07;;;;;;;37.90;29.40;;;;;;;5.87;100.00;98366.08;435601;1281;163048;-64
2022/12/23 23:31:14;;;;;;;51.20;39.00;;;;;;;5.81;100.00;98350.50;431747;1275;141415;-61
2022/12/23 23:41:40;;;;;;;47.40;33.60;;;;;;;5.69;100.00;98343.63;423976;1275;141740;-62
2022/12/23 23:51:46;;;;;;;45.60;33.50;;;;;;;5.72;100.00;98343.05;435598;1282;142385;-63
